首页
METAR-TAF:

METAR-TAF

机场 :

坦皮科, 墨西哥

纬度: 22-17N, 经度: 097-52W, 海拔: 24米

当前天气观测

该预报发布于1小时和2分钟前的14:53 UTC
风速6节,风向
温度 27°C
湿度 79%
气压 1015 hPa
能見度: 8.0公里
散云层高于1000英尺
多云层高于20000英尺

METAR: MMTM 191453Z E17006KT 5SM SCT010 BKN200 27/23 A2996 RMK SLP145 52014 909 8/608 HZ

时间: 10:55 (15:55 UTC)

预报

该预报发布于11小时和4分钟前的04:51 UTC
预报有效从19日的 06点(UTC)到 20日的 06点(UTC)
风速6节,风向
能見度: 8.0公里
散云层高于1000英尺
短暂存在
从 19日的 11点(UTC)到 19日的 15点(UTC)
能見度: 4.8公里
多云层高于800英尺
轻雾, 霾
从 19日的 1800点(UTC)
风速14节,风向东转东南
能見度: 8.0公里
散云层高于1200英尺
多云层高于8000英尺
多云层高于25000英尺
从 20日的 0500点(UTC)
风速7节,风向
能見度: 10公里
散云层高于1500英尺

TAF: MMTM 190451Z 1906/2006 09006KT 5SM HZ SCT010 TEMPO 1911/1915 3SM BR HZ BKN008 FM191800 12014KT 5SM HZ SCT012 BKN080 BKN250 FM200500 09007KT P6SM SCT015

超过4000个机场的气象观测和天气预报(METAR&TAF报告)。

可查询的气象台以黄色和红色小点在地图上表示。

将鼠标移到小点上方,可查看气象台名称。

然后点击查看天气观测和预报。

如需切换地图:点击带黑十字的绿色按钮放大地图;点击带横线的绿色按钮缩小地图;或者点击绿色箭头查看邻近地区的地图。


METAR-TAF: